Weather reports worldwide

Advertisment
Ecija, Spain (8395): temperature & dewpoint: 30.03.2020 22:00:00 - 05.04.2020 22:00:00 (CEST)Ecija, Spain (8395): wind speed & gusts: 30.03.2020 22:00:00 - 05.04.2020 22:00:00 (CEST)Ecija, Spain (8395): wind direction: 30.03.2020 22:00:00 - 05.04.2020 22:00:00 (CEST)Ecija, Spain (8395): precipitation: 30.03.2020 22:00:00 - 05.04.2020 22:00:00 (CEST)
Date & Time tt [°C] td [°C] ff [km/h] ff [kn] fx [km/h] fx [kn] dd rr [mm]
05.04.2020 22:00:00 14,5 9,9 7 4 10 6 S 0,0
05.04.2020 21:00:00 17,4 10,3 5 3 13 7 S 0,0
05.04.2020 20:00:00 20,1 8,8 13 7 22 12 S -
05.04.2020 19:00:00 20,7 9,0 15 8 24 13 S 0,0
05.04.2020 18:00:00 21,7 9,9 9 5 18 10 SSW 0,0
05.04.2020 17:00:00 22,3 10,1 6 3 17 9 WSW 0,0
05.04.2020 16:00:00 23,2 9,6 10 5 26 14 SSW 0,0
05.04.2020 15:00:00 23,1 9,1 15 8 29 16 SSW 0,0
05.04.2020 14:00:00 21,9 8,4 16 8 24 13 S -
05.04.2020 13:00:00 20,8 8,1 15 8 21 12 SSW 0,0
05.04.2020 12:00:00 20,3 8,3 16 8 23 12 S 0,0
05.04.2020 11:00:00 16,9 9,1 2 1 8 4 ESE 0,0
05.04.2020 10:00:00 15,0 9,4 3 1 6 3 ENE 0,0
05.04.2020 09:00:00 11,6 9,0 3 1 6 4 NW 0,0
05.04.2020 08:00:00 9,9 6,6 4 2 6 3 N -
05.04.2020 07:00:00 11,5 7,0 3 2 10 5 SE 0,0
05.04.2020 06:00:00 13,3 7,5 9 5 23 12 S 0,0
05.04.2020 05:00:00 13,7 7,7 14 7 21 12 S 0,0
05.04.2020 04:00:00 14,4 7,5 9 5 24 13 S 0,0
05.04.2020 03:00:00 14,0 7,3 14 7 20 11 S 0,0
05.04.2020 02:00:00 13,8 6,9 5 3 28 15 S -
05.04.2020 01:00:00 14,7 6,8 16 8 23 13 S 0,0
05.04.2020 00:00:00 13,9 6,5 11 6 17 9 S 0,0
04.04.2020 23:00:00 14,5 6,1 6 4 17 9 SSW 0,0
04.04.2020 22:00:00 15,1 7,4 7 4 15 8 SSE 0,0
04.04.2020 21:00:00 16,2 6,9 10 5 20 11 S 0,0
04.04.2020 20:00:00 17,0 7,4 15 8 25 13 S -
04.04.2020 19:00:00 17,4 8,5 10 6 25 13 S 0,0
04.04.2020 18:00:00 17,0 8,2 10 6 18 10 S 0,0
04.04.2020 17:00:00 16,9 7,6 4 2 42 23 SSE 0,0
04.04.2020 16:00:00 16,8 6,6 20 11 41 22 SE 0,0
04.04.2020 15:00:00 18,9 7,0 16 9 35 19 S 0,0
04.04.2020 14:00:00 18,7 6,2 19 10 38 21 S -
04.04.2020 13:00:00 18,9 7,4 13 7 27 14 SSW 0,0
04.04.2020 12:00:00 18,0 8,6 9 5 19 10 SE 0,0
04.04.2020 11:00:00 15,5 9,0 7 4 16 8 E 0,0
04.04.2020 10:00:00 13,4 9,8 6 3 10 5 ESE 0,0
04.04.2020 09:00:00 9,1 7,1 4 2 8 4 SSE 0,0
04.04.2020 08:00:00 7,3 5,5 3 2 5 3 ESE -
04.04.2020 07:00:00 7,6 5,4 2 1 8 4 SE 0,0
04.04.2020 06:00:00 8,1 5,6 3 2 5 3 SSE 0,0
04.04.2020 05:00:00 8,9 5,8 1 1 9 5 ESE 0,0
04.04.2020 04:00:00 9,6 6,7 5 3 10 5 E 0,0
04.04.2020 03:00:00 9,7 6,2 1 1 12 6 E 0,0
04.04.2020 02:00:00 11,2 6,9 4 2 11 6 E -
04.04.2020 01:00:00 12,1 7,4 8 5 13 7 SSE 0,0
04.04.2020 00:00:00 11,6 6,9 6 3 10 6 SSW 0,0
03.04.2020 23:00:00 12,6 6,0 7 4 11 6 SSW 0,0
03.04.2020 22:00:00 14,3 5,9 7 4 18 10 S 0,0
03.04.2020 21:00:00 16,8 6,9 10 6 23 12 SW 0,0
03.04.2020 20:00:00 18,8 7,3 15 8 23 13 SSW -
03.04.2020 19:00:00 20,7 7,7 7 4 16 9 SE 0,0
03.04.2020 18:00:00 21,7 7,9 5 3 13 7 ESE 0,0
03.04.2020 17:00:00 21,3 7,9 8 4 15 8 E 0,0
03.04.2020 16:00:00 20,9 8,2 6 4 16 8 SE 0,0
03.04.2020 15:00:00 19,9 8,9 4 2 13 7 SE 0,0
03.04.2020 14:00:00 18,6 8,3 6 3 15 8 NE -
03.04.2020 13:00:00 17,7 9,1 4 2 - - SE -
03.04.2020 12:00:00 - - - - - - - -
03.04.2020 11:00:00 - - - - - - - -
03.04.2020 10:00:00 - - - - - - - -
03.04.2020 09:00:00 - - - - - - - -
03.04.2020 08:00:00 - - - - - - - -
03.04.2020 07:00:00 - - - - - - - -
03.04.2020 06:00:00 - - - - - - - -
03.04.2020 05:00:00 - - - - - - - -
03.04.2020 04:00:00 - - - - - - - -
03.04.2020 03:00:00 - - - - - - - -
03.04.2020 02:00:00 - - - - - - - -
03.04.2020 01:00:00 - - - - - - - -
03.04.2020 00:00:00 - - - - - - - -
02.04.2020 23:00:00 - - - - - - - -
02.04.2020 22:00:00 - - - - - - - -
02.04.2020 21:00:00 - - - - - - - -
02.04.2020 20:00:00 - - - - - - - -
02.04.2020 19:00:00 - - - - - - - -
02.04.2020 18:00:00 - - - - - - - -
02.04.2020 17:00:00 - - - - - - - -
02.04.2020 16:00:00 - - - - - - - -
02.04.2020 15:00:00 - - - - - - - -
02.04.2020 14:00:00 - - - - - - - -
02.04.2020 13:00:00 - - - - - - - -
02.04.2020 12:00:00 - - - - - - - -
02.04.2020 11:00:00 - - - - - - - -
02.04.2020 10:00:00 - - - - - - - -
02.04.2020 09:00:00 - - - - - - - -
02.04.2020 08:00:00 - - - - - - - -
02.04.2020 07:00:00 - - - - - - - -
02.04.2020 06:00:00 - - - - - - - -
02.04.2020 05:00:00 - - - - - - - -
02.04.2020 04:00:00 - - - - - - - -
02.04.2020 03:00:00 - - - - - - - -
02.04.2020 02:00:00 - - - - - - - -
02.04.2020 01:00:00 - - - - - - - -
02.04.2020 00:00:00 - - - - - - - -
01.04.2020 23:00:00 - - - - - - - -
01.04.2020 22:00:00 - - - - - - - -
01.04.2020 21:00:00 - - - - - - - -
01.04.2020 20:00:00 - - - - - - - -
01.04.2020 19:00:00 - - - - - - - -
01.04.2020 18:00:00 - - - - - - - -
01.04.2020 17:00:00 - - - - - - - -
01.04.2020 16:00:00 - - - - - - - -
01.04.2020 15:00:00 - - - - - - - -
01.04.2020 14:00:00 - - - - - - - -
01.04.2020 13:00:00 - - - - - - - -
01.04.2020 12:00:00 - - - - - - - -
01.04.2020 11:00:00 - - - - - - - -
01.04.2020 10:00:00 - - 0 0 0 0 N 0,0
01.04.2020 09:00:00 - - 0 0 0 0 N 0,0
01.04.2020 08:00:00 - - 0 0 0 0 N -
01.04.2020 07:00:00 - - 0 0 0 0 N 0,0
01.04.2020 06:00:00 - - 0 0 0 0 N 0,0
01.04.2020 05:00:00 - - 0 0 0 0 N 0,0
01.04.2020 04:00:00 - - 0 0 0 0 N 0,0
01.04.2020 03:00:00 - - 0 0 0 0 N 0,0
01.04.2020 02:00:00 - - 0 0 0 0 N -
01.04.2020 01:00:00 - - 0 0 0 0 N 0,0
01.04.2020 00:00:00 - - 0 0 0 0 N 0,0
31.03.2020 23:00:00 - - 0 0 0 0 N 0,0
31.03.2020 22:00:00 - - 0 0 0 0 N 0,0
31.03.2020 21:00:00 - - 0 0 0 0 N 0,0
31.03.2020 20:00:00 - - 0 0 0 0 N -
31.03.2020 19:00:00 - - 0 0 0 0 N 0,0
31.03.2020 18:00:00 - - 0 0 0 0 N 0,0
31.03.2020 17:00:00 - - 0 0 0 0 N 0,0
31.03.2020 16:00:00 - - 0 0 0 0 N 0,0
31.03.2020 15:00:00 - - 0 0 0 0 N 0,0
31.03.2020 14:00:00 - - 0 0 0 0 N -
31.03.2020 13:00:00 - - 0 0 0 0 N 0,0
31.03.2020 12:00:00 - - 0 0 - - N -
31.03.2020 11:00:00 - - - - - - - -
31.03.2020 10:00:00 - - 9 5 16 9 S 0,0
31.03.2020 09:00:00 - - 11 6 18 10 S 0,0
31.03.2020 08:00:00 - - 11 6 26 14 S -
31.03.2020 07:00:00 - - 18 10 31 17 S 2,0
31.03.2020 06:00:00 - - 15 8 29 15 S 0,0
31.03.2020 05:00:00 - - 6 3 26 14 SE 0,0
31.03.2020 04:00:00 - - 16 8 23 12 E 9,2
31.03.2020 03:00:00 - - 3 2 11 6 E 4,4
31.03.2020 02:00:00 - - 7 4 11 6 E -
31.03.2020 01:00:00 - - 1 1 10 5 SW 2,3
31.03.2020 00:00:00 - - 6 3 11 6 N 4,5
30.03.2020 23:00:00 - - 9 5 16 8 ESE 1,7
30.03.2020 22:00:00 - - 5 3 11 6 SE 1,7

tt = temperature
td = dewpoint
ff = wind speed
fx = gusts
dd = wind direction
rr = precipitation

Next stations